createdAt,value
2022-11-17T00:04:24.585Z,55.1
2022-11-17T00:10:02.266Z,55
2022-11-17T00:15:31.728Z,54.9
2022-11-17T00:20:53.686Z,54.9
2022-11-17T00:26:31.113Z,54.8
2022-11-17T00:31:53.030Z,54.8
2022-11-17T00:37:00.871Z,54.8
2022-11-17T00:42:22.752Z,54.8
2022-11-17T00:47:45.424Z,54.7
2022-11-17T00:52:53.104Z,54.7
2022-11-17T00:58:00.669Z,54.6
2022-11-17T01:03:22.927Z,54.6
2022-11-17T01:08:31.004Z,54.5
2022-11-17T01:13:53.081Z,54.5
2022-11-17T01:19:15.403Z,54.5
2022-11-17T01:24:38.377Z,54.4
2022-11-17T01:29:45.037Z,54.4
2022-11-17T01:34:36.907Z,54.3
2022-11-17T01:39:42.750Z,54.3
2022-11-17T01:45:05.876Z,54.3
2022-11-17T01:50:13.071Z,54.2
2022-11-17T01:55:33.864Z,54.2
2022-11-17T02:00:57.322Z,54.1
2022-11-17T02:06:20.231Z,54.1
2022-11-17T02:11:57.794Z,54.1
2022-11-17T02:17:46.182Z,54
2022-11-17T02:22:53.341Z,53.9
2022-11-17T02:27:46.186Z,53.9
2022-11-17T02:33:25.302Z,53.9
2022-11-17T02:38:32.022Z,53.9
2022-11-17T02:43:38.541Z,53.8
2022-11-17T02:49:17.427Z,53.8
2022-11-17T02:54:44.194Z,53.7
2022-11-17T02:59:50.555Z,53.7
2022-11-17T03:04:58.174Z,53.6
2022-11-17T03:10:37.805Z,53.6
2022-11-17T03:16:14.487Z,53.6
2022-11-17T03:21:52.812Z,53.6
2022-11-17T03:27:31.319Z,53.5
2022-11-17T03:33:11.273Z,53.4
2022-11-17T03:38:56.093Z,53.4
2022-11-17T03:44:33.754Z,53.4
2022-11-17T03:49:09.308Z,53.3
2022-11-17T03:54:48.168Z,53.3
2022-11-17T04:00:10.386Z,53.3
2022-11-17T04:05:32.757Z,53.2
2022-11-17T04:11:12.698Z,53.2
2022-11-17T04:16:51.925Z,53.1
2022-11-17T04:22:31.747Z,53.1
2022-11-17T04:27:54.751Z,53.1
2022-11-17T04:33:32.445Z,53
2022-11-17T04:39:09.723Z,53
2022-11-17T04:44:32.512Z,52.9
2022-11-17T04:50:11.187Z,52.9
2022-11-17T04:55:38.134Z,52.9
2022-11-17T05:01:19.051Z,52.8
2022-11-17T05:06:42.092Z,52.8
2022-11-17T05:12:19.866Z,52.8
2022-11-17T05:17:44.763Z,52.7
2022-11-17T05:23:07.392Z,52.7
2022-11-17T05:28:45.019Z,52.6
2022-11-17T05:34:27.282Z,52.6
2022-11-17T05:40:05.999Z,52.6
2022-11-17T05:45:33.258Z,52.5
2022-11-17T05:51:11.362Z,52.4
2022-11-17T05:56:22.567Z,52.4
2022-11-17T06:01:31.703Z,52.4
2022-11-17T06:07:16.901Z,52.3
2022-11-17T06:12:39.956Z,52.3
2022-11-17T06:18:16.729Z,52.3
2022-11-17T06:23:55.818Z,52.3
2022-11-17T06:29:34.343Z,52.2
2022-11-17T06:34:57.902Z,52.1
2022-11-17T06:40:35.307Z,52.1
2022-11-17T06:46:17.465Z,52.1
2022-11-17T06:52:01.582Z,52
2022-11-17T07:08:27.299Z,51.9
2022-11-17T07:14:11.114Z,51.9
2022-11-17T07:19:33.922Z,51.8
2022-11-17T07:24:57.264Z,51.8
2022-11-17T07:30:41.767Z,51.8
2022-11-17T07:36:19.827Z,51.7
2022-11-17T07:41:58.582Z,51.6
2022-11-17T07:47:40.678Z,51.6
2022-11-17T07:53:19.141Z,51.6
2022-11-17T07:58:42.293Z,51.6
2022-11-17T08:04:28.169Z,51.5
2022-11-17T08:09:42.039Z,51.4
2022-11-17T08:15:05.389Z,51.4
2022-11-17T08:20:32.088Z,51.4
2022-11-17T08:25:55.371Z,51.3
2022-11-17T08:31:17.973Z,51.3
2022-11-17T08:36:43.943Z,51.3
2022-11-17T08:42:07.203Z,51.3
2022-11-17T08:47:49.832Z,51.2
2022-11-17T08:53:13.859Z,51.2
2022-11-17T08:58:54.042Z,51.1
2022-11-17T09:04:32.198Z,51.1
2022-11-17T09:10:27.976Z,51.1
2022-11-17T09:16:10.113Z,51
2022-11-17T09:21:36.196Z,51
2022-11-17T09:27:00.218Z,50.9
2022-11-17T09:32:41.027Z,50.9
2022-11-17T09:38:04.852Z,50.9
2022-11-17T09:43:29.483Z,50.8
2022-11-17T09:49:45.525Z,50.8
2022-11-17T09:55:08.671Z,50.8
2022-11-17T10:00:52.820Z,51.2
2022-11-17T10:06:37.086Z,51.3
2022-11-17T10:12:16.770Z,51.3
2022-11-17T10:17:55.176Z,51.3
2022-11-17T10:23:34.106Z,51.3
2022-11-17T10:29:11.651Z,51.3
2022-11-17T10:34:56.667Z,51.3
2022-11-17T10:40:42.609Z,51.3
2022-11-17T10:46:21.609Z,51.2
2022-11-17T10:52:08.388Z,51.2
2022-11-17T10:57:48.175Z,51.1
2022-11-17T11:03:25.435Z,51.1
2022-11-17T11:09:08.936Z,51.1
2022-11-17T11:14:47.167Z,51.1
2022-11-17T11:20:28.272Z,51.1
2022-11-17T11:25:50.634Z,51.1
2022-11-17T11:31:33.795Z,51.1
2022-11-17T11:37:14.173Z,51
2022-11-17T11:42:57.440Z,51
2022-11-17T11:48:36.079Z,51
2022-11-17T11:54:03.446Z,50.9
2022-11-17T11:59:44.376Z,50.9
2022-11-17T12:05:27.057Z,50.9
2022-11-17T12:11:05.539Z,50.9
2022-11-17T12:16:49.306Z,50.8
2022-11-17T12:22:27.655Z,50.8
2022-11-17T12:28:07.482Z,50.8
2022-11-17T12:33:45.438Z,50.8
2022-11-17T12:39:08.524Z,50.7
2022-11-17T12:44:47.702Z,50.7
2022-11-17T12:51:06.511Z,50.6
2022-11-17T12:56:45.659Z,50.6
2022-11-17T13:02:25.093Z,50.6
2022-11-17T13:08:35.370Z,50.6
2022-11-17T13:14:18.815Z,50.5
2022-11-17T13:19:56.714Z,50.4
2022-11-17T13:25:20.505Z,50.4
2022-11-17T13:30:48.709Z,50.4
2022-11-17T13:36:31.116Z,50.4
2022-11-17T13:42:15.741Z,50.4
2022-11-17T13:47:54.299Z,50.3
2022-11-17T13:53:36.593Z,50.3
2022-11-17T13:59:16.406Z,50.3
2022-11-17T14:04:55.387Z,50.2
2022-11-17T14:10:33.514Z,50.2
2022-11-17T14:16:12.074Z,50.1
2022-11-17T14:21:50.406Z,50.1
2022-11-17T14:27:35.813Z,50.1
2022-11-17T14:33:24.225Z,50.1
2022-11-17T14:39:06.993Z,50
2022-11-17T14:44:32.911Z,50
2022-11-17T14:50:15.817Z,49.9
2022-11-17T14:55:23.094Z,49.9
2022-11-17T15:00:52.037Z,49.9
2022-11-17T15:07:05.956Z,49.9
2022-11-17T15:12:45.679Z,49.8
2022-11-17T15:18:23.588Z,49.8
2022-11-17T15:23:52.141Z,49.8
2022-11-17T15:29:14.309Z,49.8
2022-11-17T15:34:53.632Z,49.7
2022-11-17T15:40:35.854Z,49.7
2022-11-17T15:46:02.437Z,49.6
2022-11-17T15:51:42.385Z,49.6
2022-11-17T15:57:52.914Z,49.6
2022-11-17T16:03:31.748Z,49.5
2022-11-17T16:08:39.291Z,49.5
2022-11-17T16:14:21.424Z,49.4
2022-11-17T16:19:58.981Z,49.4
2022-11-17T16:25:37.438Z,49.4
2022-11-17T16:31:04.457Z,49.4
2022-11-17T16:36:30.059Z,49.3
2022-11-17T16:42:37.331Z,49.3
2022-11-17T16:48:00.240Z,49.3
2022-11-17T16:53:37.399Z,49.2
2022-11-17T16:59:04.370Z,49.2
2022-11-17T17:04:42.688Z,49.1
2022-11-17T17:10:21.722Z,49.1
2022-11-17T17:15:44.044Z,49
2022-11-17T17:20:50.885Z,48.9
2022-11-17T17:26:14.009Z,48.9
2022-11-17T17:31:38.321Z,48.8
2022-11-17T17:37:16.146Z,48.8
2022-11-17T17:42:38.568Z,48.8
2022-11-17T17:48:16.395Z,48.7
2022-11-17T17:53:38.716Z,48.7
2022-11-17T17:59:00.657Z,48.6
2022-11-17T18:04:25.614Z,48.6
2022-11-17T18:10:04.121Z,48.6
2022-11-17T18:15:45.654Z,48.6
2022-11-17T18:21:29.300Z,48.5
2022-11-17T18:27:14.288Z,48.4
2022-11-17T18:32:52.658Z,48.4
2022-11-17T18:38:30.673Z,48.4
2022-11-17T18:44:08.462Z,48.4
2022-11-17T18:49:37.715Z,48.3
2022-11-17T18:55:55.144Z,48.3
2022-11-17T19:01:33.338Z,48.3
2022-11-17T19:06:55.636Z,48.3
2022-11-17T19:12:33.638Z,48.2
2022-11-17T19:18:12.120Z,48.1
2022-11-17T19:23:52.031Z,48.1
2022-11-17T19:29:17.364Z,48.1
2022-11-17T19:34:24.649Z,48.1
2022-11-17T19:40:14.512Z,48
2022-11-17T19:45:58.065Z,48
2022-11-17T19:51:35.482Z,47.9
2022-11-17T19:56:57.372Z,47.9
2022-11-17T20:02:40.125Z,47.9
2022-11-17T20:07:47.228Z,47.9
2022-11-17T20:13:10.053Z,47.8
2022-11-17T20:18:46.234Z,47.6
2022-11-17T20:24:25.012Z,47.5
2022-11-17T20:29:52.923Z,47.5
2022-11-17T20:35:36.891Z,47.4
2022-11-17T20:41:16.193Z,47.4
2022-11-17T20:46:54.280Z,47.4
2022-11-17T20:52:01.031Z,47.3
2022-11-17T20:57:39.602Z,47.3
2022-11-17T21:03:03.788Z,47.2
2022-11-17T21:08:48.319Z,47.2
2022-11-17T21:14:11.550Z,47.1
2022-11-17T21:19:55.289Z,47.1
2022-11-17T21:25:32.706Z,47.1
2022-11-17T21:31:02.760Z,47
2022-11-17T21:36:30.489Z,46.9
2022-11-17T21:42:08.903Z,46.9
2022-11-17T21:47:30.689Z,46.8
2022-11-17T21:53:08.763Z,46.8
2022-11-17T21:58:31.313Z,46.8
2022-11-17T22:03:53.479Z,46.8
2022-11-17T22:09:33.389Z,46.7
2022-11-17T22:14:55.738Z,46.6
2022-11-17T22:20:33.178Z,46.6
2022-11-17T22:26:26.810Z,46.5
2022-11-17T22:32:03.484Z,46.5
2022-11-17T22:37:29.347Z,46.4
2022-11-17T22:43:11.830Z,46.4
2022-11-17T22:48:51.638Z,46.3
2022-11-17T22:54:29.283Z,46.3
2022-11-17T23:00:12.381Z,46.3
2022-11-17T23:05:34.337Z,46.3
2022-11-17T23:11:22.098Z,46.2
2022-11-17T23:16:57.343Z,46.1
2022-11-17T23:22:19.848Z,46.1
2022-11-17T23:27:58.187Z,46.1
2022-11-17T23:33:36.161Z,46
2022-11-17T23:39:16.879Z,45.9
2022-11-17T23:44:56.252Z,45.9
2022-11-17T23:50:34.404Z,45.9
2022-11-17T23:56:11.382Z,45.8
